Estación Meteorológica Peña el Pijo (Robertgarden) [ 06/14/24 09:12:33 CEST ]

Fecha Hora Presion(HPa) Temp (°C) Humedad % Rocio (°C) Viento ( m/s) Direccion Lluvia 1Hora(mm) Lluvia 24H(mm) LLuvia Total(mm)
2009-Mar-01 01:01:13 1005.500 6.2 82 3.2       1.03 217.04
2009-Mar-01 02:01:44 1005.600 6.2 82 3.3       1.03 217.04
2009-Mar-01 03:06:20 1005.400 6.8 82 3.9       1.03 217.04
2009-Mar-01 04:01:17 1005.200 6.8 82 3.9       1.03 217.04
2009-Mar-01 05:01:14 1004.900 6.8 81 3.8       1.03 217.04
2009-Mar-01 06:01:16 1005.000 6.9 79 3.5       1.03 217.04
2009-Mar-01 07:01:17 1005.200 6.9 79 3.5       1.03 217.04
2009-Mar-01 08:01:14 1005.200 6.5 78 2.9       1.03 217.04
2009-Mar-01 09:01:10 1005.800 7.3 78 3.7       1.03 217.04
2009-Mar-01 10:01:14 1006.500 10.0 71 5.0       1.03 217.04
2009-Mar-01 11:01:11 1006.800 9.8 68 4.2       1.03 217.04
2009-Mar-01 12:01:16 1006.600 10.5 64 4.0       1.03 217.04
2009-Mar-01 13:01:13 1006.500 11.5 61 4.2       1.03 217.04
2009-Mar-01 14:01:14 1006.300 11.9 60 4.4       1.03 217.04
2009-Mar-01 15:01:13 1006.300 12.1 57 3.8       1.03 217.04
2009-Mar-01 16:01:19 1006.000 12.3 53 3.0         217.04
2009-Mar-01 17:01:16 1006.300 10.1 58 2.2         217.04
2009-Mar-01 18:01:14 1006.300 9.8 58 1.9         217.04
2009-Mar-01 19:01:12 1006.800 7.8 62 0.9         217.04
2009-Mar-01 20:01:17 1007.500 7.8 67 2.0         217.04
2009-Mar-01 21:01:11 1007.900 7.8 69 2.5         217.04
2009-Mar-01 22:01:11 1008.300 7.6 71 2.7         217.04
2009-Mar-01 23:01:12 1008.700 7.4 70 2.3         217.04

Temperatura Máxima:12°    Temperatura Mínima:
Presión Máxima:1008.700 Hpa    Presión Mínima:1004.900 Hpa


Volver